createdAt,value
2019-02-02T00:02:32.552Z,92.51
2019-02-02T00:04:23.491Z,92.23
2019-02-02T00:05:15.372Z,91.28
2019-02-02T00:06:06.105Z,91.28
2019-02-02T00:07:00.607Z,91.19
2019-02-02T00:07:51.188Z,90.61
2019-02-02T00:08:43.191Z,90.14
2019-02-02T00:09:37.652Z,90.42
2019-02-02T00:23:08.828Z,94.7
2019-02-02T00:24:04.125Z,94.32
2019-02-02T00:25:00.032Z,94.32
2019-02-02T00:25:55.693Z,93.84
2019-02-02T00:26:51.342Z,93.84
2019-02-02T00:29:07.563Z,93.18
2019-02-02T00:33:21.009Z,90.94
2019-02-02T00:35:30.643Z,89.71
2019-02-02T00:39:41.440Z,88.38
2019-02-02T00:42:40.461Z,90.28
2019-02-02T00:43:28.578Z,90.66
2019-02-02T00:44:10.505Z,90.9
2019-02-02T00:44:51.002Z,90.42
2019-02-02T00:45:33.885Z,90.28
2019-02-02T00:46:14.334Z,90.47
2019-02-02T00:46:54.888Z,90.33
2019-02-02T00:47:38.830Z,90.61
2019-02-02T00:48:20.866Z,91.28
2019-02-02T00:49:02.285Z,90.8
2019-02-02T00:49:44.368Z,90.99
2019-02-02T00:50:30.189Z,92.13
2019-02-02T00:55:12.433Z,92.8
2019-02-02T00:56:05.944Z,93.37
2019-02-02T00:57:01.326Z,94.03
2019-02-02T00:57:54.074Z,93.84
2019-02-02T00:58:43.687Z,93.84
2019-02-02T00:59:35.266Z,94.32
2019-02-02T01:00:28.956Z,94.32
2019-02-02T01:01:18.781Z,93.94
2019-02-02T01:02:13.414Z,93.56
2019-02-02T01:04:53.121Z,91.33
2019-02-02T01:05:47.844Z,91.52
2019-02-02T01:06:37.481Z,91.23
2019-02-02T01:07:27.100Z,90.94
2019-02-02T01:08:19.239Z,90.19
2019-02-02T01:09:08.694Z,90
2019-02-02T01:10:00.623Z,89.61
2019-02-02T01:10:52.632Z,88.71
2019-02-02T01:11:43.281Z,88.42
2019-02-02T01:12:35.490Z,87.38
2019-02-02T01:13:26.222Z,86.9
2019-02-02T01:15:35.918Z,85.86
2019-02-02T01:17:43.853Z,85.28
2019-02-02T01:20:24.124Z,84.81
2019-02-02T01:23:08.040Z,85
2019-02-02T01:23:58.701Z,84.91
2019-02-02T01:24:50.766Z,84.62
2019-02-02T01:25:45.525Z,84.62
2019-02-02T01:26:38.154Z,84.62
2019-02-02T01:27:28.951Z,85.57
2019-02-02T01:28:26.041Z,85.57
2019-02-02T01:29:14.523Z,85.57
2019-02-02T01:30:05.578Z,85.1
2019-02-02T01:30:54.327Z,84.52
2019-02-02T01:31:43.803Z,84.52
2019-02-02T01:32:33.678Z,84.91
2019-02-02T01:33:22.812Z,85
2019-02-02T01:34:11.782Z,84.24
2019-02-02T01:35:01.800Z,85.28
2019-02-02T01:35:50.298Z,84.14
2019-02-02T01:36:39.414Z,85.1
2019-02-02T01:37:28.033Z,85.28
2019-02-02T01:38:18.133Z,86.24
2019-02-02T01:39:07.868Z,86.38
2019-02-02T01:39:58.445Z,87.71
2019-02-02T01:46:39.601Z,91.19
2019-02-02T01:47:36.054Z,91.75
2019-02-02T01:50:03.098Z,93.18
2019-02-02T02:31:03.329Z,99.99
2019-02-02T02:31:55.452Z,99.99
2019-02-02T02:32:51.722Z,99.99
2019-02-02T02:33:50.398Z,99.99
2019-02-02T02:34:42.392Z,98.4
2019-02-02T02:35:33.919Z,98.4
2019-02-02T02:36:32.051Z,97.74
2019-02-02T02:49:14.299Z,99.21
2019-02-02T02:50:04.157Z,99.68
2019-02-02T02:50:53.344Z,99.99
2019-02-02T02:51:42.637Z,99.99
2019-02-02T02:52:33.684Z,99.99
2019-02-02T02:53:20.140Z,99.99
2019-02-02T02:55:26.238Z,99.99
2019-02-02T02:56:15.289Z,99.99
2019-02-02T02:57:04.671Z,99.99
2019-02-02T02:57:53.336Z,99.99
2019-02-02T02:58:42.063Z,99.99
2019-02-02T02:59:31.861Z,99.99
2019-02-02T03:00:21.671Z,99.99
2019-02-02T03:01:10.051Z,99.99
2019-02-02T03:01:59.210Z,99.99
2019-02-02T03:04:06.458Z,99.99
2019-02-02T03:04:58.074Z,99.99
2019-02-02T03:06:50.828Z,99.99
2019-02-02T03:07:40.774Z,99.99
2019-02-02T03:08:34.112Z,99.99
2019-02-02T03:09:22.931Z,99.99
2019-02-02T03:10:13.365Z,99.99
2019-02-02T03:11:01.057Z,99.99
2019-02-02T03:11:53.099Z,99.99
2019-02-02T03:12:44.214Z,99.99
2019-02-02T03:13:37.250Z,99.99
2019-02-02T03:14:27.120Z,99.99
2019-02-02T03:15:19.798Z,99.99
2019-02-02T03:16:10.293Z,99.99
2019-02-02T03:17:01.399Z,99.99
2019-02-02T03:17:54.808Z,99.99
2019-02-02T03:18:44.701Z,99.99
2019-02-02T03:19:35.646Z,99.99
2019-02-02T03:20:24.044Z,99.99
2019-02-02T03:21:15.089Z,99.99
2019-02-02T03:22:07.777Z,99.99
2019-02-02T03:22:57.208Z,99.99
2019-02-02T03:23:46.149Z,99.99
2019-02-02T03:24:35.959Z,99.99
2019-02-02T03:25:40.181Z,99.99
2019-02-02T03:33:05.328Z,99.99
2019-02-02T03:35:40.676Z,99.99
2019-02-02T03:36:30.527Z,99.99
2019-02-02T03:37:21.663Z,99.99
2019-02-02T03:38:12.772Z,99.99
2019-02-02T03:39:08.149Z,99.99
2019-02-02T03:39:58.368Z,99.99
2019-02-02T03:40:47.029Z,99.99
2019-02-02T03:41:36.001Z,99.99
2019-02-02T03:42:24.390Z,99.99
2019-02-02T03:43:13.126Z,99.99
2019-02-02T03:44:01.548Z,99.99
2019-02-02T03:44:50.548Z,99.99
2019-02-02T03:45:41.472Z,99.99
2019-02-02T03:46:29.049Z,99.99
2019-02-02T03:47:17.694Z,99.99
2019-02-02T03:48:08.121Z,99.99
2019-02-02T03:48:57.173Z,99.99
2019-02-02T03:49:45.971Z,99.99
2019-02-02T03:50:35.022Z,99.99
2019-02-02T03:51:25.503Z,99.99
2019-02-02T03:52:15.482Z,99.99
2019-02-02T03:53:07.734Z,99.99
2019-02-02T03:54:07.862Z,99.99
2019-02-02T03:54:47.308Z,99.99
2019-02-02T03:55:36.391Z,99.99
2019-02-02T03:56:38.514Z,99.99
2019-02-02T04:06:36.205Z,99.99
2019-02-02T04:09:16.925Z,99.99
2019-02-02T04:10:09.474Z,99.99
2019-02-02T04:11:01.256Z,99.99
2019-02-02T04:14:22.841Z,99.99
2019-02-02T04:15:11.146Z,99.99
2019-02-02T04:15:59.874Z,99.99
2019-02-02T04:16:49.491Z,99.99
2019-02-02T04:17:38.892Z,99.99
2019-02-02T04:18:28.678Z,99.99
2019-02-02T04:19:16.743Z,99.92
2019-02-02T04:20:05.613Z,99.64
2019-02-02T04:20:57.010Z,98.88
2019-02-02T04:21:46.133Z,98.45
2019-02-02T04:22:35.704Z,97.6
2019-02-02T04:23:24.214Z,96.36
2019-02-02T04:24:13.184Z,97.41
2019-02-02T04:25:04.034Z,97.31
2019-02-02T04:25:59.095Z,98.12
2019-02-02T05:26:16.103Z,97.74
2019-02-02T05:27:05.466Z,97.6
2019-02-02T05:27:54.610Z,97.03
2019-02-02T05:28:42.355Z,96.74
2019-02-02T05:29:40.971Z,96.84
2019-02-02T05:30:22.153Z,96.55
2019-02-02T05:31:06.321Z,96.65
2019-02-02T05:31:46.774Z,95.79
2019-02-02T05:32:27.341Z,95.79
2019-02-02T05:33:07.705Z,95.03
2019-02-02T05:33:48.182Z,95.51
2019-02-02T05:34:29.914Z,95.12
2019-02-02T05:35:10.333Z,95.51
2019-02-02T05:35:50.744Z,95.32
2019-02-02T05:36:31.515Z,94.93
2019-02-02T05:37:11.821Z,95.22
2019-02-02T05:37:52.533Z,94.74
2019-02-02T05:38:32.793Z,94.74
2019-02-02T05:39:13.320Z,94.56
2019-02-02T05:39:54.984Z,94.65
2019-02-02T05:40:36.187Z,94.27
2019-02-02T05:44:43.164Z,94.37
2019-02-02T05:45:31.530Z,95.03
2019-02-02T05:46:21.650Z,94.37
2019-02-02T05:47:10.729Z,95.41
2019-02-02T05:47:59.966Z,95.7
2019-02-02T05:48:48.244Z,97.6
2019-02-02T05:49:38.111Z,97.41
2019-02-02T05:50:28.230Z,97.27
2019-02-02T05:51:18.072Z,97.45
2019-02-02T05:52:06.166Z,97.36
2019-02-02T05:52:57.812Z,98.31
2019-02-02T05:53:48.882Z,98.59
2019-02-02T05:54:37.599Z,98.59
2019-02-02T05:55:30.311Z,99.35
2019-02-02T05:56:19.738Z,99.97
2019-02-02T05:57:08.140Z,99.99
2019-02-02T05:57:58.763Z,99.99
2019-02-02T05:58:47.071Z,99.99
2019-02-02T05:59:36.218Z,99.99
2019-02-02T06:00:26.223Z,99.99
2019-02-02T06:01:13.577Z,99.99
2019-02-02T06:02:05.380Z,99.99
2019-02-02T06:02:55.508Z,99.99
2019-02-02T06:03:47.373Z,99.99
2019-02-02T06:04:35.713Z,99.99
2019-02-02T06:05:25.397Z,99.99
2019-02-02T06:06:16.623Z,99.99
2019-02-02T06:07:08.924Z,99.99
2019-02-02T06:07:57.248Z,99.99
2019-02-02T06:10:04.864Z,99.99
2019-02-02T06:10:56.501Z,99.99
2019-02-02T06:11:50.047Z,99.99
2019-02-02T06:12:46.860Z,99.99
2019-02-02T06:15:10.693Z,99.99
2019-02-02T06:19:32.874Z,99.99
2019-02-02T06:20:25.574Z,99.99
2019-02-02T06:21:34.712Z,99.99
2019-02-02T06:24:48.014Z,99.99
2019-02-02T06:25:38.049Z,99.73
2019-02-02T06:26:27.728Z,99.99
2019-02-02T06:27:17.481Z,99.99
2019-02-02T06:28:06.575Z,99.99
2019-02-02T06:28:57.170Z,99.99
2019-02-02T06:29:46.207Z,99.99
2019-02-02T06:30:35.823Z,99.99
2019-02-02T06:31:24.507Z,99.99
2019-02-02T06:32:13.730Z,99.99
2019-02-02T06:33:03.722Z,99.99
2019-02-02T06:33:52.822Z,99.99
2019-02-02T06:34:42.684Z,99.99
2019-02-02T06:35:34.452Z,99.99
2019-02-02T06:39:13.157Z,99.99
2019-02-02T06:42:42.365Z,99.99
2019-02-02T06:43:32.076Z,99.99
2019-02-02T06:44:21.211Z,99.99
2019-02-02T06:45:11.672Z,99.99
2019-02-02T06:46:05.190Z,99.99
2019-02-02T06:46:56.055Z,99.97
2019-02-02T06:49:02.900Z,98.45
2019-02-02T06:49:55.028Z,98.83
2019-02-02T06:52:29.692Z,98.83
2019-02-02T06:53:20.675Z,98.17
2019-02-02T06:56:26.716Z,98.74
2019-02-02T06:57:16.142Z,99.02
2019-02-02T06:58:06.163Z,99.11
2019-02-02T07:00:26.718Z,98.93
2019-02-02T07:01:16.727Z,98.36
2019-02-02T07:02:07.657Z,98.07
2019-02-02T07:02:57.275Z,97.22
2019-02-02T07:03:45.463Z,97.31
2019-02-02T07:04:35.356Z,97.22
2019-02-02T07:05:23.390Z,96.17
2019-02-02T07:06:15.720Z,96.84
2019-02-02T07:07:04.265Z,96.36
2019-02-02T07:07:52.838Z,96.36
2019-02-02T07:08:41.841Z,97.03
2019-02-02T07:09:31.753Z,95.7
2019-02-02T07:10:22.448Z,96.08
2019-02-02T07:11:12.185Z,96.17
2019-02-02T07:12:01.131Z,95.51
2019-02-02T07:12:50.170Z,94.74
2019-02-02T07:13:39.353Z,94.93
2019-02-02T07:14:28.723Z,94.84
2019-02-02T07:15:24.050Z,96.12
2019-02-02T07:22:31.364Z,94.27
2019-02-02T07:28:48.015Z,98.21
2019-02-02T07:29:36.017Z,98.4
2019-02-02T07:30:29.908Z,98.12
2019-02-02T07:34:28.095Z,99.92
2019-02-02T07:35:24.088Z,99.73
2019-02-02T07:36:14.295Z,99.99
2019-02-02T07:38:46.924Z,99.99
2019-02-02T07:41:10.822Z,99.99
2019-02-02T07:59:49.497Z,99.99
2019-02-02T08:03:18.318Z,99.99
2019-02-02T08:04:27.686Z,99.99
2019-02-02T08:05:21.932Z,99.99
2019-02-02T08:06:16.752Z,99.99
2019-02-02T08:17:10.465Z,99.99
2019-02-02T08:35:53.804Z,99.99
2019-02-02T08:36:51.735Z,99.99
2019-02-02T08:37:57.606Z,99.99
2019-02-02T08:39:53.196Z,99.99
2019-02-02T08:43:55.195Z,99.99
2019-02-02T08:47:42.413Z,99.99
2019-02-02T08:51:01.524Z,99.99
2019-02-02T08:53:02.522Z,99.99
2019-02-02T08:58:21.485Z,99.99
2019-02-02T09:14:03.816Z,99.99
2019-02-02T09:35:47.791Z,99.99
2019-02-02T09:37:29.305Z,99.99
2019-02-02T11:13:04.633Z,99.99
2019-02-02T11:13:55.926Z,99.99
2019-02-02T11:14:48.031Z,99.92
2019-02-02T11:15:32.071Z,99.99
2019-02-02T11:37:41.511Z,95.75
2019-02-02T11:38:25.411Z,96.22
2019-02-02T11:58:06.639Z,95.03
2019-02-02T12:00:07.999Z,96.55
2019-02-02T12:02:13.307Z,96.36
2019-02-02T13:08:00.906Z,94.08
2019-02-02T13:08:59.991Z,94.89
2019-02-02T13:09:44.746Z,93.46
2019-02-02T13:10:34.204Z,93.75
2019-02-02T14:13:11.034Z,90.89
2019-02-02T14:14:05.368Z,91.42
2019-02-02T14:34:58.519Z,92.66
2019-02-02T14:35:41.573Z,91.99
2019-02-02T15:27:47.724Z,91.23
2019-02-02T16:18:23.648Z,88.53
2019-02-02T16:19:06.147Z,88.62
2019-02-02T17:58:19.595Z,95.89
2019-02-02T18:12:29.831Z,96.26
2019-02-02T19:26:54.218Z,98.21
2019-02-02T20:07:10.406Z,96.08
2019-02-02T20:11:50.728Z,94.98
2019-02-02T20:12:39.367Z,96.64
2019-02-02T20:24:34.512Z,96.41
2019-02-02T20:29:44.024Z,97.83
2019-02-02T20:30:33.151Z,97.17
2019-02-02T20:41:54.499Z,97.07
2019-02-02T20:54:10.849Z,96.55
2019-02-02T21:15:20.176Z,97.83
2019-02-02T21:16:04.316Z,98.87
2019-02-02T21:35:30.958Z,99.73
2019-02-02T21:36:16.675Z,98.59
2019-02-02T21:36:58.097Z,98.78
2019-02-02T21:37:40.450Z,99.44
2019-02-02T21:38:28.803Z,98.59
2019-02-02T21:39:18.305Z,97.92
2019-02-02T21:39:58.736Z,98.11
2019-02-02T21:40:51.402Z,98.4
2019-02-02T21:41:35.769Z,97.74
2019-02-02T21:42:25.474Z,97.92
2019-02-02T21:43:13.840Z,97.92
2019-02-02T21:44:18.259Z,97.92
2019-02-02T21:45:02.696Z,97.36
2019-02-02T21:45:45.163Z,97.83
2019-02-02T21:46:45.983Z,97.26
2019-02-02T21:47:28.850Z,97.92
2019-02-02T21:48:12.710Z,97.64
2019-02-02T21:48:54.097Z,97.64
2019-02-02T21:49:34.626Z,97.83
2019-02-02T21:50:21.861Z,97.74
2019-02-02T23:13:20.624Z,98.68
2019-02-02T23:22:05.595Z,98.3
2019-02-02T23:27:45.453Z,97.26
2019-02-02T23:30:41.779Z,96.97
2019-02-02T23:34:43.348Z,95.84
2019-02-02T23:35:48.139Z,96.59
2019-02-02T23:36:34.027Z,95.98
2019-02-02T23:37:38.587Z,94.84
2019-02-02T23:41:46.081Z,96.41
2019-02-02T23:42:35.282Z,96.12
2019-02-02T23:47:01.634Z,94.79
2019-02-02T23:48:44.930Z,95.65
